sensor_id;sensor_type;location;lat;lon;timestamp;P1;durP1;ratioP1;P2;durP2;ratioP2
8254;SDS011;4167;48.162;11.542;2023-12-20T00:01:08;146.63;;;133.93;;
8254;SDS011;4167;48.162;11.542;2023-12-20T00:03:36;156.20;;;140.18;;
8254;SDS011;4167;48.162;11.542;2023-12-20T00:06:02;173.85;;;143.85;;
8254;SDS011;4167;48.162;11.542;2023-12-20T00:08:29;148.95;;;134.43;;
8254;SDS011;4167;48.162;11.542;2023-12-20T00:10:55;186.23;;;146.07;;
8254;SDS011;4167;48.162;11.542;2023-12-20T00:13:22;152.30;;;135.77;;
8254;SDS011;4167;48.162;11.542;2023-12-20T00:15:47;157.73;;;140.60;;
8254;SDS011;4167;48.162;11.542;2023-12-20T00:18:14;151.52;;;138.10;;
8254;SDS011;4167;48.162;11.542;2023-12-20T00:20:42;158.80;;;142.05;;
8254;SDS011;4167;48.162;11.542;2023-12-20T00:23:08;157.45;;;140.48;;
8254;SDS011;4167;48.162;11.542;2023-12-20T00:25:34;143.20;;;128.85;;
8254;SDS011;4167;48.162;11.542;2023-12-20T00:28:01;155.48;;;139.50;;
8254;SDS011;4167;48.162;11.542;2023-12-20T00:30:28;146.52;;;133.45;;
8254;SDS011;4167;48.162;11.542;2023-12-20T00:32:55;151.73;;;136.05;;
8254;SDS011;4167;48.162;11.542;2023-12-20T00:35:21;154.70;;;139.18;;
8254;SDS011;4167;48.162;11.542;2023-12-20T00:37:49;150.15;;;136.25;;
8254;SDS011;4167;48.162;11.542;2023-12-20T00:40:16;150.35;;;136.38;;
8254;SDS011;4167;48.162;11.542;2023-12-20T00:42:42;151.38;;;137.55;;
8254;SDS011;4167;48.162;11.542;2023-12-20T00:45:09;167.98;;;140.25;;
8254;SDS011;4167;48.162;11.542;2023-12-20T00:47:35;152.40;;;137.30;;
8254;SDS011;4167;48.162;11.542;2023-12-20T00:50:02;169.13;;;146.52;;
8254;SDS011;4167;48.162;11.542;2023-12-20T00:52:29;164.88;;;136.32;;
8254;SDS011;4167;48.162;11.542;2023-12-20T00:54:56;158.63;;;139.27;;
8254;SDS011;4167;48.162;11.542;2023-12-20T00:57:23;147.00;;;132.23;;
8254;SDS011;4167;48.162;11.542;2023-12-20T00:59:50;145.70;;;132.45;;
8254;SDS011;4167;48.162;11.542;2023-12-20T01:02:16;153.23;;;136.63;;
8254;SDS011;4167;48.162;11.542;2023-12-20T01:07:19;154.75;;;138.23;;
8254;SDS011;4167;48.162;11.542;2023-12-20T01:09:46;149.30;;;135.63;;
8254;SDS011;4167;48.162;11.542;2023-12-20T01:12:14;148.90;;;133.77;;
8254;SDS011;4167;48.162;11.542;2023-12-20T01:14:41;143.30;;;131.02;;
8254;SDS011;4167;48.162;11.542;2023-12-20T01:17:08;162.40;;;146.13;;
8254;SDS011;4167;48.162;11.542;2023-12-20T01:19:35;149.55;;;136.52;;
8254;SDS011;4167;48.162;11.542;2023-12-20T01:22:01;158.10;;;139.10;;
8254;SDS011;4167;48.162;11.542;2023-12-20T01:24:28;147.35;;;133.15;;
8254;SDS011;4167;48.162;11.542;2023-12-20T01:26:54;150.48;;;134.20;;
8254;SDS011;4167;48.162;11.542;2023-12-20T01:29:22;154.35;;;139.25;;
8254;SDS011;4167;48.162;11.542;2023-12-20T01:31:49;147.65;;;134.48;;
8254;SDS011;4167;48.162;11.542;2023-12-20T01:34:15;149.50;;;135.13;;
8254;SDS011;4167;48.162;11.542;2023-12-20T01:36:42;157.95;;;143.13;;
8254;SDS011;4167;48.162;11.542;2023-12-20T01:39:07;152.45;;;138.10;;
8254;SDS011;4167;48.162;11.542;2023-12-20T01:41:34;158.15;;;143.88;;
8254;SDS011;4167;48.162;11.542;2023-12-20T01:44:00;161.07;;;141.15;;
8254;SDS011;4167;48.162;11.542;2023-12-20T01:46:28;157.98;;;142.85;;
8254;SDS011;4167;48.162;11.542;2023-12-20T01:48:54;153.65;;;139.48;;
8254;SDS011;4167;48.162;11.542;2023-12-20T01:51:21;148.50;;;134.88;;
8254;SDS011;4167;48.162;11.542;2023-12-20T01:53:48;163.65;;;143.38;;
8254;SDS011;4167;48.162;11.542;2023-12-20T01:56:15;161.38;;;144.48;;
8254;SDS011;4167;48.162;11.542;2023-12-20T01:58:43;148.63;;;134.60;;
8254;SDS011;4167;48.162;11.542;2023-12-20T02:01:11;151.57;;;137.35;;
8254;SDS011;4167;48.162;11.542;2023-12-20T02:03:39;148.35;;;134.57;;
8254;SDS011;4167;48.162;11.542;2023-12-20T02:06:07;163.25;;;147.18;;
8254;SDS011;4167;48.162;11.542;2023-12-20T02:08:33;153.02;;;138.75;;
8254;SDS011;4167;48.162;11.542;2023-12-20T02:11:00;154.82;;;140.05;;
8254;SDS011;4167;48.162;11.542;2023-12-20T02:13:26;153.20;;;138.68;;
8254;SDS011;4167;48.162;11.542;2023-12-20T02:15:53;146.40;;;132.85;;
8254;SDS011;4167;48.162;11.542;2023-12-20T02:20:48;151.60;;;138.20;;
8254;SDS011;4167;48.162;11.542;2023-12-20T02:23:16;152.18;;;136.07;;
8254;SDS011;4167;48.162;11.542;2023-12-20T02:25:42;147.90;;;135.50;;
8254;SDS011;4167;48.162;11.542;2023-12-20T02:28:08;150.15;;;135.65;;
8254;SDS011;4167;48.162;11.542;2023-12-20T02:30:35;146.90;;;134.57;;
8254;SDS011;4167;48.162;11.542;2023-12-20T02:33:01;165.25;;;137.45;;
8254;SDS011;4167;48.162;11.542;2023-12-20T02:35:30;149.82;;;135.90;;
8254;SDS011;4167;48.162;11.542;2023-12-20T02:37:56;144.80;;;133.57;;
8254;SDS011;4167;48.162;11.542;2023-12-20T02:40:24;148.18;;;133.02;;
8254;SDS011;4167;48.162;11.542;2023-12-20T02:42:50;156.32;;;139.43;;
8254;SDS011;4167;48.162;11.542;2023-12-20T02:45:17;155.98;;;139.98;;
8254;SDS011;4167;48.162;11.542;2023-12-20T02:47:43;146.70;;;133.77;;
8254;SDS011;4167;48.162;11.542;2023-12-20T02:50:10;157.00;;;141.10;;
8254;SDS011;4167;48.162;11.542;2023-12-20T02:52:36;178.40;;;140.88;;
8254;SDS011;4167;48.162;11.542;2023-12-20T02:55:03;170.38;;;146.23;;
8254;SDS011;4167;48.162;11.542;2023-12-20T02:57:31;148.82;;;135.13;;
8254;SDS011;4167;48.162;11.542;2023-12-20T02:59:58;142.98;;;130.10;;
8254;SDS011;4167;48.162;11.542;2023-12-20T03:02:25;151.30;;;135.77;;
8254;SDS011;4167;48.162;11.542;2023-12-20T03:04:51;158.40;;;141.85;;
8254;SDS011;4167;48.162;11.542;2023-12-20T03:07:18;161.43;;;144.63;;
8254;SDS011;4167;48.162;11.542;2023-12-20T03:09:44;150.45;;;136.90;;
8254;SDS011;4167;48.162;11.542;2023-12-20T03:12:10;153.35;;;138.68;;
8254;SDS011;4167;48.162;11.542;2023-12-20T03:14:38;155.50;;;139.50;;
8254;SDS011;4167;48.162;11.542;2023-12-20T03:17:05;158.10;;;140.00;;
8254;SDS011;4167;48.162;11.542;2023-12-20T03:19:31;150.40;;;135.63;;
8254;SDS011;4167;48.162;11.542;2023-12-20T03:21:57;153.68;;;139.10;;
8254;SDS011;4167;48.162;11.542;2023-12-20T03:24:26;153.52;;;137.75;;
8254;SDS011;4167;48.162;11.542;2023-12-20T03:26:52;148.98;;;134.75;;
8254;SDS011;4167;48.162;11.542;2023-12-20T03:29:19;156.40;;;139.55;;
8254;SDS011;4167;48.162;11.542;2023-12-20T03:31:47;151.15;;;137.75;;
8254;SDS011;4167;48.162;11.542;2023-12-20T03:34:13;162.32;;;145.52;;
8254;SDS011;4167;48.162;11.542;2023-12-20T03:36:40;157.65;;;143.30;;
8254;SDS011;4167;48.162;11.542;2023-12-20T03:39:06;150.40;;;135.98;;
8254;SDS011;4167;48.162;11.542;2023-12-20T03:41:33;161.32;;;144.30;;
8254;SDS011;4167;48.162;11.542;2023-12-20T03:43:59;153.00;;;139.05;;
8254;SDS011;4167;48.162;11.542;2023-12-20T03:46:25;151.45;;;137.18;;
8254;SDS011;4167;48.162;11.542;2023-12-20T03:48:53;151.43;;;139.13;;
8254;SDS011;4167;48.162;11.542;2023-12-20T03:51:20;158.32;;;142.15;;
8254;SDS011;4167;48.162;11.542;2023-12-20T03:53:46;150.25;;;134.40;;
8254;SDS011;4167;48.162;11.542;2023-12-20T03:56:13;161.05;;;144.77;;
8254;SDS011;4167;48.162;11.542;2023-12-20T03:58:39;158.32;;;143.20;;
8254;SDS011;4167;48.162;11.542;2023-12-20T04:01:08;159.40;;;145.43;;
8254;SDS011;4167;48.162;11.542;2023-12-20T04:03:36;152.05;;;137.68;;
8254;SDS011;4167;48.162;11.542;2023-12-20T04:06:04;168.30;;;148.98;;
8254;SDS011;4167;48.162;11.542;2023-12-20T04:08:30;147.65;;;135.00;;
8254;SDS011;4167;48.162;11.542;2023-12-20T04:10:57;157.05;;;143.25;;
8254;SDS011;4167;48.162;11.542;2023-12-20T04:13:23;147.07;;;132.85;;
8254;SDS011;4167;48.162;11.542;2023-12-20T04:15:49;154.75;;;140.43;;
8254;SDS011;4167;48.162;11.542;2023-12-20T04:18:16;154.63;;;138.23;;
8254;SDS011;4167;48.162;11.542;2023-12-20T04:20:43;155.13;;;141.88;;
8254;SDS011;4167;48.162;11.542;2023-12-20T04:23:11;159.77;;;143.10;;
8254;SDS011;4167;48.162;11.542;2023-12-20T04:25:38;160.88;;;144.88;;
8254;SDS011;4167;48.162;11.542;2023-12-20T04:28:04;148.73;;;136.10;;
8254;SDS011;4167;48.162;11.542;2023-12-20T04:30:31;150.02;;;135.25;;
8254;SDS011;4167;48.162;11.542;2023-12-20T04:32:57;148.35;;;134.75;;
8254;SDS011;4167;48.162;11.542;2023-12-20T04:35:24;148.23;;;136.20;;
8254;SDS011;4167;48.162;11.542;2023-12-20T04:37:51;155.65;;;140.40;;
8254;SDS011;4167;48.162;11.542;2023-12-20T04:40:19;157.90;;;139.25;;
8254;SDS011;4167;48.162;11.542;2023-12-20T04:42:45;155.15;;;140.30;;
8254;SDS011;4167;48.162;11.542;2023-12-20T04:45:11;153.88;;;138.73;;
8254;SDS011;4167;48.162;11.542;2023-12-20T04:47:41;153.88;;;138.20;;
8254;SDS011;4167;48.162;11.542;2023-12-20T04:50:08;151.73;;;136.82;;
8254;SDS011;4167;48.162;11.542;2023-12-20T04:52:34;158.82;;;141.63;;
8254;SDS011;4167;48.162;11.542;2023-12-20T04:55:01;155.20;;;138.90;;
8254;SDS011;4167;48.162;11.542;2023-12-20T04:57:28;151.38;;;139.48;;
8254;SDS011;4167;48.162;11.542;2023-12-20T04:59:55;156.48;;;140.88;;
8254;SDS011;4167;48.162;11.542;2023-12-20T05:02:21;162.63;;;144.25;;
8254;SDS011;4167;48.162;11.542;2023-12-20T05:04:48;267.70;;;153.20;;
8254;SDS011;4167;48.162;11.542;2023-12-20T05:07:14;160.40;;;144.05;;
8254;SDS011;4167;48.162;11.542;2023-12-20T05:09:41;151.13;;;136.75;;
8254;SDS011;4167;48.162;11.542;2023-12-20T05:12:07;152.20;;;137.85;;
8254;SDS011;4167;48.162;11.542;2023-12-20T05:14:35;187.93;;;146.93;;
8254;SDS011;4167;48.162;11.542;2023-12-20T05:17:02;155.82;;;142.40;;
8254;SDS011;4167;48.162;11.542;2023-12-20T05:19:29;155.73;;;142.93;;
8254;SDS011;4167;48.162;11.542;2023-12-20T05:21:55;159.02;;;144.35;;
8254;SDS011;4167;48.162;11.542;2023-12-20T05:24:22;160.65;;;143.45;;
8254;SDS011;4167;48.162;11.542;2023-12-20T05:26:48;160.15;;;143.00;;
8254;SDS011;4167;48.162;11.542;2023-12-20T05:29:14;159.85;;;141.70;;
8254;SDS011;4167;48.162;11.542;2023-12-20T05:31:43;152.70;;;136.68;;
8254;SDS011;4167;48.162;11.542;2023-12-20T05:34:09;151.95;;;136.40;;
8254;SDS011;4167;48.162;11.542;2023-12-20T05:36:36;155.88;;;139.10;;
8254;SDS011;4167;48.162;11.542;2023-12-20T05:39:03;167.90;;;151.40;;
8254;SDS011;4167;48.162;11.542;2023-12-20T05:41:30;151.55;;;137.35;;
8254;SDS011;4167;48.162;11.542;2023-12-20T05:43:56;152.77;;;138.85;;
8254;SDS011;4167;48.162;11.542;2023-12-20T05:48:52;163.77;;;146.40;;
8254;SDS011;4167;48.162;11.542;2023-12-20T05:51:18;156.50;;;139.52;;
8254;SDS011;4167;48.162;11.542;2023-12-20T05:53:44;153.15;;;138.73;;
8254;SDS011;4167;48.162;11.542;2023-12-20T05:56:11;147.98;;;137.38;;
8254;SDS011;4167;48.162;11.542;2023-12-20T05:58:38;157.30;;;142.30;;
8254;SDS011;4167;48.162;11.542;2023-12-20T06:01:05;154.35;;;140.05;;
8254;SDS011;4167;48.162;11.542;2023-12-20T06:03:32;151.68;;;137.80;;
8254;SDS011;4167;48.162;11.542;2023-12-20T06:06:00;158.18;;;141.75;;
8254;SDS011;4167;48.162;11.542;2023-12-20T06:08:31;157.65;;;141.85;;
8254;SDS011;4167;48.162;11.542;2023-12-20T06:10:57;174.13;;;153.07;;
8254;SDS011;4167;48.162;11.542;2023-12-20T06:13:24;164.93;;;145.55;;
8254;SDS011;4167;48.162;11.542;2023-12-20T06:15:50;156.88;;;143.50;;
8254;SDS011;4167;48.162;11.542;2023-12-20T06:18:17;162.25;;;147.25;;
8254;SDS011;4167;48.162;11.542;2023-12-20T06:20:43;162.48;;;147.45;;
8254;SDS011;4167;48.162;11.542;2023-12-20T06:23:11;156.25;;;142.75;;
8254;SDS011;4167;48.162;11.542;2023-12-20T06:25:38;166.38;;;150.18;;
8254;SDS011;4167;48.162;11.542;2023-12-20T06:28:04;161.27;;;148.80;;
8254;SDS011;4167;48.162;11.542;2023-12-20T06:30:31;168.93;;;152.50;;
8254;SDS011;4167;48.162;11.542;2023-12-20T06:32:59;164.30;;;147.65;;
8254;SDS011;4167;48.162;11.542;2023-12-20T06:35:25;174.75;;;156.75;;
8254;SDS011;4167;48.162;11.542;2023-12-20T06:37:52;168.68;;;154.27;;
8254;SDS011;4167;48.162;11.542;2023-12-20T06:40:19;163.45;;;146.63;;
8254;SDS011;4167;48.162;11.542;2023-12-20T06:42:46;162.82;;;148.52;;
8254;SDS011;4167;48.162;11.542;2023-12-20T06:45:12;172.63;;;155.93;;
8254;SDS011;4167;48.162;11.542;2023-12-20T06:47:39;169.38;;;152.40;;
8254;SDS011;4167;48.162;11.542;2023-12-20T06:50:05;163.55;;;149.63;;
8254;SDS011;4167;48.162;11.542;2023-12-20T06:52:33;180.85;;;157.73;;
8254;SDS011;4167;48.162;11.542;2023-12-20T06:55:00;164.90;;;148.65;;
8254;SDS011;4167;48.162;11.542;2023-12-20T06:57:27;171.30;;;152.95;;
8254;SDS011;4167;48.162;11.542;2023-12-20T06:59:54;165.88;;;150.73;;
8254;SDS011;4167;48.162;11.542;2023-12-20T07:02:20;179.00;;;151.77;;
8254;SDS011;4167;48.162;11.542;2023-12-20T07:04:47;176.55;;;153.48;;
8254;SDS011;4167;48.162;11.542;2023-12-20T07:07:14;164.63;;;149.73;;
8254;SDS011;4167;48.162;11.542;2023-12-20T07:09:40;173.05;;;155.02;;
8254;SDS011;4167;48.162;11.542;2023-12-20T07:12:07;163.60;;;148.45;;
8254;SDS011;4167;48.162;11.542;2023-12-20T07:14:35;172.07;;;157.65;;
8254;SDS011;4167;48.162;11.542;2023-12-20T07:17:02;168.95;;;152.18;;
8254;SDS011;4167;48.162;11.542;2023-12-20T07:19:29;170.98;;;151.57;;
8254;SDS011;4167;48.162;11.542;2023-12-20T07:21:55;159.07;;;143.63;;
8254;SDS011;4167;48.162;11.542;2023-12-20T07:24:22;166.70;;;150.05;;
8254;SDS011;4167;48.162;11.542;2023-12-20T07:26:48;193.85;;;153.63;;
8254;SDS011;4167;48.162;11.542;2023-12-20T07:29:15;157.30;;;145.05;;
8254;SDS011;4167;48.162;11.542;2023-12-20T07:31:43;168.50;;;152.27;;
8254;SDS011;4167;48.162;11.542;2023-12-20T07:34:09;162.48;;;147.75;;
8254;SDS011;4167;48.162;11.542;2023-12-20T07:36:36;168.73;;;151.57;;
8254;SDS011;4167;48.162;11.542;2023-12-20T07:39:02;160.23;;;144.60;;
8254;SDS011;4167;48.162;11.542;2023-12-20T07:41:29;158.38;;;144.50;;
8254;SDS011;4167;48.162;11.542;2023-12-20T07:43:55;158.38;;;142.88;;
8254;SDS011;4167;48.162;11.542;2023-12-20T07:46:22;162.27;;;146.57;;
8254;SDS011;4167;48.162;11.542;2023-12-20T07:48:50;163.18;;;144.63;;
8254;SDS011;4167;48.162;11.542;2023-12-20T07:51:16;157.88;;;144.52;;
8254;SDS011;4167;48.162;11.542;2023-12-20T07:53:43;164.18;;;147.80;;
8254;SDS011;4167;48.162;11.542;2023-12-20T07:56:16;162.55;;;146.45;;
8254;SDS011;4167;48.162;11.542;2023-12-20T07:58:42;162.25;;;146.80;;
8254;SDS011;4167;48.162;11.542;2023-12-20T08:01:10;170.48;;;153.07;;
8254;SDS011;4167;48.162;11.542;2023-12-20T08:03:36;163.65;;;148.95;;
8254;SDS011;4167;48.162;11.542;2023-12-20T08:06:04;171.93;;;153.75;;
8254;SDS011;4167;48.162;11.542;2023-12-20T08:08:31;165.98;;;147.82;;
8254;SDS011;4167;48.162;11.542;2023-12-20T08:10:57;166.52;;;150.32;;
8254;SDS011;4167;48.162;11.542;2023-12-20T08:13:25;162.38;;;146.55;;
8254;SDS011;4167;48.162;11.542;2023-12-20T08:15:52;163.77;;;148.57;;
8254;SDS011;4167;48.162;11.542;2023-12-20T08:18:19;160.55;;;147.00;;
8254;SDS011;4167;48.162;11.542;2023-12-20T08:20:45;164.18;;;149.98;;
8254;SDS011;4167;48.162;11.542;2023-12-20T08:23:14;159.82;;;145.18;;
8254;SDS011;4167;48.162;11.542;2023-12-20T08:25:41;170.90;;;153.82;;
8254;SDS011;4167;48.162;11.542;2023-12-20T08:28:07;171.63;;;155.18;;
8254;SDS011;4167;48.162;11.542;2023-12-20T08:30:34;164.60;;;147.55;;
8254;SDS011;4167;48.162;11.542;2023-12-20T08:33:00;161.82;;;147.23;;
8254;SDS011;4167;48.162;11.542;2023-12-20T08:35:27;185.15;;;156.02;;
8254;SDS011;4167;48.162;11.542;2023-12-20T08:37:54;173.93;;;153.95;;
8254;SDS011;4167;48.162;11.542;2023-12-20T08:40:21;163.00;;;147.73;;
8254;SDS011;4167;48.162;11.542;2023-12-20T08:42:48;169.88;;;152.25;;
8254;SDS011;4167;48.162;11.542;2023-12-20T08:45:14;174.68;;;158.35;;
8254;SDS011;4167;48.162;11.542;2023-12-20T08:47:41;164.00;;;149.05;;
8254;SDS011;4167;48.162;11.542;2023-12-20T08:50:10;165.25;;;149.57;;
8254;SDS011;4167;48.162;11.542;2023-12-20T08:52:37;249.45;;;161.73;;
8254;SDS011;4167;48.162;11.542;2023-12-20T08:55:03;165.73;;;149.90;;
8254;SDS011;4167;48.162;11.542;2023-12-20T08:57:32;162.63;;;147.43;;
8254;SDS011;4167;48.162;11.542;2023-12-20T08:59:58;166.10;;;149.90;;
8254;SDS011;4167;48.162;11.542;2023-12-20T09:02:25;170.55;;;153.20;;
8254;SDS011;4167;48.162;11.542;2023-12-20T09:04:51;168.77;;;151.43;;
8254;SDS011;4167;48.162;11.542;2023-12-20T09:07:21;168.25;;;152.48;;
8254;SDS011;4167;48.162;11.542;2023-12-20T09:09:48;171.30;;;155.02;;
8254;SDS011;4167;48.162;11.542;2023-12-20T09:12:15;165.63;;;149.95;;
8254;SDS011;4167;48.162;11.542;2023-12-20T09:14:43;258.80;;;164.13;;
8254;SDS011;4167;48.162;11.542;2023-12-20T09:17:09;164.90;;;149.82;;
8254;SDS011;4167;48.162;11.542;2023-12-20T09:19:37;170.00;;;152.93;;
8254;SDS011;4167;48.162;11.542;2023-12-20T09:22:03;167.93;;;152.85;;
8254;SDS011;4167;48.162;11.542;2023-12-20T09:24:30;179.00;;;156.80;;
8254;SDS011;4167;48.162;11.542;2023-12-20T09:26:56;172.45;;;154.25;;
8254;SDS011;4167;48.162;11.542;2023-12-20T09:29:23;162.73;;;148.68;;
8254;SDS011;4167;48.162;11.542;2023-12-20T09:31:51;174.07;;;157.95;;
8254;SDS011;4167;48.162;11.542;2023-12-20T09:34:17;166.35;;;150.80;;
8254;SDS011;4167;48.162;11.542;2023-12-20T09:36:44;162.75;;;146.48;;
8254;SDS011;4167;48.162;11.542;2023-12-20T09:41:37;169.80;;;152.30;;
8254;SDS011;4167;48.162;11.542;2023-12-20T09:44:09;174.98;;;156.98;;
8254;SDS011;4167;48.162;11.542;2023-12-20T09:46:39;204.73;;;154.25;;
8254;SDS011;4167;48.162;11.542;2023-12-20T09:49:10;167.77;;;151.45;;
8254;SDS011;4167;48.162;11.542;2023-12-20T09:51:37;182.38;;;157.23;;
8254;SDS011;4167;48.162;11.542;2023-12-20T09:54:04;185.93;;;167.68;;
8254;SDS011;4167;48.162;11.542;2023-12-20T09:56:30;175.07;;;156.68;;
8254;SDS011;4167;48.162;11.542;2023-12-20T09:58:57;162.77;;;147.10;;
8254;SDS011;4167;48.162;11.542;2023-12-20T10:01:24;160.23;;;146.90;;
8254;SDS011;4167;48.162;11.542;2023-12-20T10:03:53;162.10;;;147.65;;
8254;SDS011;4167;48.162;11.542;2023-12-20T10:06:22;186.43;;;157.25;;
8254;SDS011;4167;48.162;11.542;2023-12-20T10:08:48;161.35;;;145.98;;
8254;SDS011;4167;48.162;11.542;2023-12-20T10:11:15;153.63;;;139.68;;
8254;SDS011;4167;48.162;11.542;2023-12-20T10:13:42;171.77;;;154.05;;
8254;SDS011;4167;48.162;11.542;2023-12-20T10:16:09;157.32;;;143.10;;
8254;SDS011;4167;48.162;11.542;2023-12-20T10:18:35;165.07;;;146.10;;
8254;SDS011;4167;48.162;11.542;2023-12-20T10:21:02;189.93;;;157.65;;
8254;SDS011;4167;48.162;11.542;2023-12-20T10:23:30;165.50;;;148.90;;
8254;SDS011;4167;48.162;11.542;2023-12-20T10:25:57;168.43;;;151.18;;
8254;SDS011;4167;48.162;11.542;2023-12-20T10:28:24;160.68;;;146.90;;
8254;SDS011;4167;48.162;11.542;2023-12-20T10:30:52;168.88;;;153.35;;
8254;SDS011;4167;48.162;11.542;2023-12-20T10:33:23;165.40;;;151.60;;
8254;SDS011;4167;48.162;11.542;2023-12-20T10:35:50;158.90;;;144.43;;
8254;SDS011;4167;48.162;11.542;2023-12-20T10:38:17;162.60;;;148.07;;
8254;SDS011;4167;48.162;11.542;2023-12-20T10:40:45;169.20;;;151.35;;
8254;SDS011;4167;48.162;11.542;2023-12-20T10:43:12;164.32;;;149.63;;
8254;SDS011;4167;48.162;11.542;2023-12-20T10:45:38;171.80;;;147.82;;
8254;SDS011;4167;48.162;11.542;2023-12-20T10:48:05;163.40;;;148.07;;
8254;SDS011;4167;48.162;11.542;2023-12-20T10:50:32;170.15;;;151.82;;
8254;SDS011;4167;48.162;11.542;2023-12-20T10:53:01;174.40;;;157.45;;
8254;SDS011;4167;48.162;11.542;2023-12-20T10:55:28;160.05;;;145.13;;
8254;SDS011;4167;48.162;11.542;2023-12-20T10:57:58;163.18;;;148.38;;
8254;SDS011;4167;48.162;11.542;2023-12-20T11:00:27;168.90;;;152.35;;
8254;SDS011;4167;48.162;11.542;2023-12-20T11:02:55;161.20;;;145.82;;
8254;SDS011;4167;48.162;11.542;2023-12-20T11:05:26;159.25;;;145.77;;
8254;SDS011;4167;48.162;11.542;2023-12-20T11:08:00;175.68;;;158.38;;
8254;SDS011;4167;48.162;11.542;2023-12-20T11:10:35;156.93;;;143.27;;
8254;SDS011;4167;48.162;11.542;2023-12-20T11:13:08;159.63;;;143.60;;
8254;SDS011;4167;48.162;11.542;2023-12-20T11:15:37;166.35;;;149.10;;
8254;SDS011;4167;48.162;11.542;2023-12-20T11:18:04;164.43;;;148.50;;
8254;SDS011;4167;48.162;11.542;2023-12-20T11:20:38;159.43;;;145.20;;
8254;SDS011;4167;48.162;11.542;2023-12-20T11:25:35;155.23;;;140.68;;
8254;SDS011;4167;48.162;11.542;2023-12-20T11:28:14;163.43;;;148.73;;
8254;SDS011;4167;48.162;11.542;2023-12-20T11:30:42;177.10;;;159.00;;
8254;SDS011;4167;48.162;11.542;2023-12-20T11:33:12;172.77;;;156.27;;
8254;SDS011;4167;48.162;11.542;2023-12-20T11:35:39;161.77;;;143.48;;
8254;SDS011;4167;48.162;11.542;2023-12-20T11:38:07;158.15;;;144.40;;
8254;SDS011;4167;48.162;11.542;2023-12-20T11:40:34;165.85;;;150.02;;
8254;SDS011;4167;48.162;11.542;2023-12-20T11:43:01;164.60;;;148.25;;
8254;SDS011;4167;48.162;11.542;2023-12-20T11:45:28;165.80;;;148.43;;
8254;SDS011;4167;48.162;11.542;2023-12-20T11:47:56;163.82;;;148.23;;
8254;SDS011;4167;48.162;11.542;2023-12-20T11:50:23;162.05;;;148.43;;
8254;SDS011;4167;48.162;11.542;2023-12-20T11:52:50;171.15;;;153.20;;
8254;SDS011;4167;48.162;11.542;2023-12-20T11:55:18;167.25;;;150.48;;
8254;SDS011;4167;48.162;11.542;2023-12-20T11:57:44;170.50;;;149.02;;
8254;SDS011;4167;48.162;11.542;2023-12-20T12:00:12;158.18;;;143.45;;
8254;SDS011;4167;48.162;11.542;2023-12-20T12:02:41;178.00;;;153.93;;
8254;SDS011;4167;48.162;11.542;2023-12-20T12:05:07;170.70;;;152.77;;
8254;SDS011;4167;48.162;11.542;2023-12-20T12:07:34;161.40;;;146.10;;
8254;SDS011;4167;48.162;11.542;2023-12-20T12:10:01;158.48;;;143.82;;
8254;SDS011;4167;48.162;11.542;2023-12-20T12:12:28;166.23;;;150.00;;
8254;SDS011;4167;48.162;11.542;2023-12-20T12:14:55;222.52;;;155.73;;
8254;SDS011;4167;48.162;11.542;2023-12-20T12:19:51;163.45;;;144.88;;
8254;SDS011;4167;48.162;11.542;2023-12-20T12:22:28;188.52;;;151.27;;
8254;SDS011;4167;48.162;11.542;2023-12-20T12:24:55;171.48;;;147.35;;
8254;SDS011;4167;48.162;11.542;2023-12-20T12:27:25;156.60;;;143.23;;
8254;SDS011;4167;48.162;11.542;2023-12-20T12:32:29;164.95;;;147.65;;
8254;SDS011;4167;48.162;11.542;2023-12-20T12:34:57;159.48;;;144.45;;
8254;SDS011;4167;48.162;11.542;2023-12-20T12:37:23;155.23;;;140.75;;
8254;SDS011;4167;48.162;11.542;2023-12-20T12:39:50;160.77;;;146.50;;
8254;SDS011;4167;48.162;11.542;2023-12-20T12:42:16;173.13;;;150.23;;
8254;SDS011;4167;48.162;11.542;2023-12-20T12:44:42;173.88;;;153.35;;
8254;SDS011;4167;48.162;11.542;2023-12-20T12:47:09;167.90;;;151.70;;
8254;SDS011;4167;48.162;11.542;2023-12-20T12:49:35;163.07;;;147.40;;
8254;SDS011;4167;48.162;11.542;2023-12-20T12:52:04;161.82;;;147.60;;
8254;SDS011;4167;48.162;11.542;2023-12-20T12:54:30;163.13;;;147.77;;
8254;SDS011;4167;48.162;11.542;2023-12-20T12:56:57;163.50;;;147.00;;
8254;SDS011;4167;48.162;11.542;2023-12-20T12:59:23;165.45;;;146.45;;
8254;SDS011;4167;48.162;11.542;2023-12-20T13:01:51;175.88;;;154.23;;
8254;SDS011;4167;48.162;11.542;2023-12-20T13:04:18;176.02;;;157.15;;
8254;SDS011;4167;48.162;11.542;2023-12-20T13:06:44;181.77;;;154.68;;
8254;SDS011;4167;48.162;11.542;2023-12-20T13:09:13;166.70;;;150.88;;
8254;SDS011;4167;48.162;11.542;2023-12-20T13:11:40;177.85;;;158.38;;
8254;SDS011;4167;48.162;11.542;2023-12-20T13:14:07;185.55;;;155.40;;
8254;SDS011;4167;48.162;11.542;2023-12-20T13:16:35;170.38;;;150.80;;
8254;SDS011;4167;48.162;11.542;2023-12-20T13:19:02;177.45;;;161.07;;
8254;SDS011;4167;48.162;11.542;2023-12-20T13:21:28;165.52;;;150.77;;
8254;SDS011;4167;48.162;11.542;2023-12-20T13:23:55;168.38;;;151.65;;
8254;SDS011;4167;48.162;11.542;2023-12-20T13:26:23;167.95;;;151.63;;
8254;SDS011;4167;48.162;11.542;2023-12-20T13:28:50;168.38;;;149.95;;
8254;SDS011;4167;48.162;11.542;2023-12-20T13:31:16;165.57;;;149.70;;
8254;SDS011;4167;48.162;11.542;2023-12-20T13:33:43;177.00;;;157.43;;
8254;SDS011;4167;48.162;11.542;2023-12-20T13:36:09;170.38;;;151.48;;
8254;SDS011;4167;48.162;11.542;2023-12-20T13:38:36;160.88;;;145.55;;
8254;SDS011;4167;48.162;11.542;2023-12-20T13:41:02;161.52;;;146.38;;
8254;SDS011;4167;48.162;11.542;2023-12-20T13:43:30;164.55;;;149.93;;
8254;SDS011;4167;48.162;11.542;2023-12-20T13:45:57;171.15;;;153.73;;
8254;SDS011;4167;48.162;11.542;2023-12-20T13:48:24;161.52;;;145.65;;
8254;SDS011;4167;48.162;11.542;2023-12-20T13:50:50;170.73;;;152.38;;
8254;SDS011;4167;48.162;11.542;2023-12-20T13:53:17;159.63;;;146.30;;
8254;SDS011;4167;48.162;11.542;2023-12-20T13:55:44;168.85;;;151.63;;
8254;SDS011;4167;48.162;11.542;2023-12-20T13:58:10;171.52;;;153.50;;
8254;SDS011;4167;48.162;11.542;2023-12-20T14:00:38;164.00;;;147.60;;
8254;SDS011;4167;48.162;11.542;2023-12-20T14:03:06;159.23;;;143.93;;
8254;SDS011;4167;48.162;11.542;2023-12-20T14:05:33;181.00;;;145.50;;
8254;SDS011;4167;48.162;11.542;2023-12-20T14:07:59;173.45;;;158.48;;
8254;SDS011;4167;48.162;11.542;2023-12-20T14:10:26;157.35;;;142.75;;
8254;SDS011;4167;48.162;11.542;2023-12-20T14:12:53;244.75;;;157.02;;
8254;SDS011;4167;48.162;11.542;2023-12-20T14:15:19;163.65;;;146.68;;
8254;SDS011;4167;48.162;11.542;2023-12-20T14:17:47;175.52;;;154.20;;
8254;SDS011;4167;48.162;11.542;2023-12-20T14:20:13;161.93;;;146.13;;
8254;SDS011;4167;48.162;11.542;2023-12-20T14:22:41;166.88;;;148.73;;
8254;SDS011;4167;48.162;11.542;2023-12-20T14:27:37;158.25;;;145.25;;